M I D A S
Marine Information and Data Acquisition System
Tripno 1242 of the Zeeleeuw from 2007-03-29 05:00:32 to 2007-03-29 07:51:53
Back to CruiseResearch ActivitiesStationsMapUnderway DataData graphs

EquipmentUnitsComments
TimeDGPSUTC
LatitudeDGPSDM.mWGS84
LongitudeDGPSDM.mWGS84
SpeedMeteo Stationm/sRelative wind speed
DirectionMeteo StationdegRelative wind direction
TemperatureMeteo Stationdeg CelciusAir temperature
PressureMeteo StationPaAtmospheric pressure
HumidityMeteo Station%Relative humidity
Missing or incorrect values are displayed as -999
Metereological data collected by the RV Zeeleeuw from 2007-03-29 05:01:44 to 2007-03-29 07:56:21
                                                                                    Next 1000 lines
Time Latitude Longitude Speed Direction Temperature Pressure Humidity
2007-03-29 05:01:55 51°13.601 2°56.097 -999 -999 -999 -999 -999
2007-03-29 05:01:59 51°13.601 2°56.096 -999 -999 -999 -999 -999
2007-03-29 05:02:04 51°13.602 2°56.094 -999 -999 -999 -999 -999
2007-03-29 05:02:09 51°13.602 2°56.091 -999 -999 -999 -999 -999
2007-03-29 05:02:15 51°13.604 2°56.087 -999 -999 -999 -999 -999
2007-03-29 05:02:19 51°13.605 2°56.083 -999 -999 -999 -999 -999
2007-03-29 05:02:24 51°13.606 2°56.079 -999 -999 -999 -999 -999
2007-03-29 05:02:29 51°13.607 2°56.073 -999 -999 -999 -999 -999
2007-03-29 05:02:34 51°13.609 2°56.068 -999 -999 -999 -999 -999
2007-03-29 05:02:40 51°13.611 2°56.061 -999 -999 -999 -999 -999
2007-03-29 05:02:44 51°13.612 2°56.056 -999 -999 -999 -999 -999
2007-03-29 05:02:49 51°13.614 2°56.049 -999 -999 -999 -999 -999
2007-03-29 05:02:54 51°13.616 2°56.042 -999 -999 -999 -999 -999
2007-03-29 05:03:00 51°13.618 2°56.033 -999 -999 -999 -999 -999
2007-03-29 05:03:05 51°13.62 2°56.026 -999 -999 -999 -999 -999
2007-03-29 05:03:09 51°13.622 2°56.02 -999 -999 -999 -999 -999
2007-03-29 05:03:14 51°13.624 2°56.012 -999 -999 -999 -999 -999
2007-03-29 05:03:19 51°13.626 2°56.004 -999 -999 -999 -999 -999
2007-03-29 05:03:25 51°13.628 2°55.994 -999 -999 -999 -999 -999
2007-03-29 05:03:29 51°13.629 2°55.988 -999 -999 -999 -999 -999
2007-03-29 05:03:34 51°13.632 2°55.979 -999 -999 -999 -999 -999
2007-03-29 05:03:39 51°13.634 2°55.971 -999 -999 -999 -999 -999
2007-03-29 05:03:44 51°13.637 2°55.962 -999 -999 -999 -999 -999
2007-03-29 05:03:49 51°13.64 2°55.953 -999 -999 -999 -999 -999
2007-03-29 05:03:54 51°13.643 2°55.944 -999 -999 -999 -999 -999
2007-03-29 05:03:59 51°13.646 2°55.935 -999 -999 -999 -999 -999
2007-03-29 05:04:04 51°13.65 2°55.926 -999 -999 -999 -999 -999
2007-03-29 05:04:09 51°13.653 2°55.917 -999 -999 -999 -999 -999
2007-03-29 05:04:14 51°13.657 2°55.908 -999 -999 -999 -999 -999
2007-03-29 05:04:19 51°13.661 2°55.899 -999 -999 -999 -999 -999
2007-03-29 05:04:24 51°13.664 2°55.89 -999 -999 -999 -999 -999
2007-03-29 05:04:29 51°13.668 2°55.881 -999 -999 -999 -999 -999
2007-03-29 05:04:35 51°13.672 2°55.871 -999 -999 -999 -999 -999
2007-03-29 05:04:39 51°13.675 2°55.865 -999 -999 -999 -999 -999
2007-03-29 05:04:44 51°13.678 2°55.857 -999 -999 -999 -999 -999
2007-03-29 05:04:49 51°13.682 2°55.849 -999 -999 -999 -999 -999
2007-03-29 05:04:54 51°13.685 2°55.84 -999 -999 -999 -999 -999
2007-03-29 05:04:59 51°13.689 2°55.832 -999 -999 -999 -999 -999
2007-03-29 05:05:05 51°13.694 2°55.822 -999 -999 -999 -999 -999
2007-03-29 05:05:09 51°13.696 2°55.816 -999 -999 -999 -999 -999
2007-03-29 05:05:14 51°13.7 2°55.808 -999 -999 -999 -999 -999
2007-03-29 05:05:20 51°13.704 2°55.799 -999 -999 -999 -999 -999
2007-03-29 05:05:25 51°13.707 2°55.791 -999 -999 -999 -999 -999
2007-03-29 05:05:29 51°13.71 2°55.786 -999 -999 -999 -999 -999
2007-03-29 05:05:34 51°13.712 2°55.778 -999 -999 -999 -999 -999
2007-03-29 05:05:39 51°13.715 2°55.772 -999 -999 -999 -999 -999
2007-03-29 05:05:45 51°13.719 2°55.764 -999 -999 -999 -999 -999
2007-03-29 05:05:49 51°13.721 2°55.759 -999 -999 -999 -999 -999
2007-03-29 05:05:54 51°13.723 2°55.753 -999 -999 -999 -999 -999
2007-03-29 05:05:59 51°13.725 2°55.748 -999 -999 -999 -999 -999
2007-03-29 05:06:04 51°13.726 2°55.743 -999 -999 -999 -999 -999
2007-03-29 05:06:09 51°13.728 2°55.739 -999 -999 -999 -999 -999
2007-03-29 05:06:14 51°13.729 2°55.736 -999 -999 -999 -999 -999
2007-03-29 05:06:19 51°13.73 2°55.734 -999 -999 -999 -999 -999
2007-03-29 05:06:24 51°13.731 2°55.733 -999 -999 -999 -999 -999
2007-03-29 05:06:29 51°13.731 2°55.733 -999 -999 -999 -999 -999
2007-03-29 05:06:34 51°13.731 2°55.733 -999 -999 -999 -999 -999
2007-03-29 05:06:39 51°13.732 2°55.733 -999 -999 -999 -999 -999
2007-03-29 05:06:44 51°13.732 2°55.734 -999 -999 -999 -999 -999
2007-03-29 05:06:49 51°13.732 2°55.733 -999 -999 -999 -999 -999
2007-03-29 05:06:54 51°13.733 2°55.733 -999 -999 -999 -999 -999
2007-03-29 05:06:59 51°13.733 2°55.732 -999 -999 -999 -999 -999
2007-03-29 05:07:04 51°13.733 2°55.731 -999 -999 -999 -999 -999
2007-03-29 05:07:09 51°13.733 2°55.73 -999 -999 -999 -999 -999
2007-03-29 05:07:14 51°13.733 2°55.728 -999 -999 -999 -999 -999
2007-03-29 05:07:19 51°13.733 2°55.726 -999 -999 -999 -999 -999
2007-03-29 05:07:24 51°13.733 2°55.723 -999 -999 -999 -999 -999
2007-03-29 05:07:29 51°13.733 2°55.721 -999 -999 -999 -999 -999
2007-03-29 05:07:34 51°13.733 2°55.718 -999 -999 -999 -999 -999
2007-03-29 05:07:40 51°13.733 2°55.715 -999 -999 -999 -999 -999
2007-03-29 05:07:45 51°13.733 2°55.713 -999 -999 -999 -999 -999
2007-03-29 05:07:49 51°13.733 2°55.712 -999 -999 -999 -999 -999
2007-03-29 05:07:54 51°13.733 2°55.711 -999 -999 -999 -999 -999
2007-03-29 05:07:59 51°13.733 2°55.71 -999 -999 -999 -999 -999
2007-03-29 05:08:05 51°13.733 2°55.71 -999 -999 -999 -999 -999
2007-03-29 05:08:09 51°13.734 2°55.71 -999 -999 -999 -999 -999
2007-03-29 05:08:14 51°13.734 2°55.711 -999 -999 -999 -999 -999
2007-03-29 05:08:19 51°13.735 2°55.712 -999 -999 -999 -999 -999
2007-03-29 05:08:24 51°13.736 2°55.713 -999 -999 -999 -999 -999
2007-03-29 05:08:29 51°13.736 2°55.713 -999 -999 -999 -999 -999
2007-03-29 05:08:34 51°13.736 2°55.713 -999 -999 -999 -999 -999
2007-03-29 05:08:39 51°13.736 2°55.712 -999 -999 -999 -999 -999
2007-03-29 05:08:44 51°13.736 2°55.711 -999 -999 -999 -999 -999
2007-03-29 05:08:49 51°13.735 2°55.71 -999 -999 -999 -999 -999
2007-03-29 05:08:54 51°13.734 2°55.709 -999 -999 -999 -999 -999
2007-03-29 05:08:59 51°13.733 2°55.707 -999 -999 -999 -999 -999
2007-03-29 05:09:04 51°13.732 2°55.706 -999 -999 -999 -999 -999
2007-03-29 05:09:09 51°13.731 2°55.704 -999 -999 -999 -999 -999
2007-03-29 05:09:14 51°13.73 2°55.704 -999 -999 -999 -999 -999
2007-03-29 05:09:20 51°13.729 2°55.703 -999 -999 -999 -999 -999
2007-03-29 05:09:24 51°13.729 2°55.702 -999 -999 -999 -999 -999
2007-03-29 05:09:29 51°13.729 2°55.702 -999 -999 -999 -999 -999
2007-03-29 05:09:34 51°13.73 2°55.702 -999 -999 -999 -999 -999
2007-03-29 05:09:39 51°13.73 2°55.702 -999 -999 -999 -999 -999
2007-03-29 05:09:45 51°13.731 2°55.702 -999 -999 -999 -999 -999
2007-03-29 05:09:49 51°13.732 2°55.702 -999 -999 -999 -999 -999
2007-03-29 05:09:54 51°13.733 2°55.702 -999 -999 -999 -999 -999
2007-03-29 05:09:59 51°13.734 2°55.701 -999 -999 -999 -999 -999
2007-03-29 05:10:04 51°13.735 2°55.701 -999 -999 -999 -999 -999
2007-03-29 05:10:09 51°13.736 2°55.701 -999 -999 -999 -999 -999
2007-03-29 05:10:14 51°13.738 2°55.7 -999 -999 -999 -999 -999
2007-03-29 05:10:19 51°13.741 2°55.698 -999 -999 -999 -999 -999
2007-03-29 05:10:24 51°13.744 2°55.697 -999 -999 -999 -999 -999
2007-03-29 05:10:29 51°13.747 2°55.694 -999 -999 -999 -999 -999
2007-03-29 05:10:34 51°13.751 2°55.692 -999 -999 -999 -999 -999
2007-03-29 05:10:39 51°13.756 2°55.689 -999 -999 -999 -999 -999
2007-03-29 05:10:44 51°13.761 2°55.685 -999 -999 -999 -999 -999
2007-03-29 05:10:49 51°13.767 2°55.681 -999 -999 -999 -999 -999
2007-03-29 05:10:54 51°13.773 2°55.677 -999 -999 -999 -999 -999
2007-03-29 05:10:59 51°13.78 2°55.673 -999 -999 -999 -999 -999
2007-03-29 05:11:04 51°13.787 2°55.668 -999 -999 -999 -999 -999
2007-03-29 05:11:09 51°13.795 2°55.663 -999 -999 -999 -999 -999
2007-03-29 05:11:14 51°13.802 2°55.658 -999 -999 -999 -999 -999
2007-03-29 05:11:19 51°13.81 2°55.652 -999 -999 -999 -999 -999
2007-03-29 05:11:24 51°13.818 2°55.646 -999 -999 -999 -999 -999
2007-03-29 05:11:29 51°13.827 2°55.641 -999 -999 -999 -999 -999
2007-03-29 05:11:34 51°13.836 2°55.635 -999 -999 -999 -999 -999
2007-03-29 05:11:39 51°13.845 2°55.629 -999 -999 -999 -999 -999
2007-03-29 05:11:44 51°13.854 2°55.623 -999 -999 -999 -999 -999
2007-03-29 05:11:49 51°13.863 2°55.617 -999 -999 -999 -999 -999
2007-03-29 05:11:54 51°13.872 2°55.611 -999 -999 -999 -999 -999
2007-03-29 05:11:59 51°13.881 2°55.605 -999 -999 -999 -999 -999
2007-03-29 05:12:04 51°13.891 2°55.599 -999 -999 -999 -999 -999
2007-03-29 05:12:09 51°13.9 2°55.593 -999 -999 -999 -999 -999
2007-03-29 05:12:14 51°13.91 2°55.587 -999 -999 -999 -999 -999
2007-03-29 05:12:19 51°13.92 2°55.581 -999 -999 -999 -999 -999
2007-03-29 05:12:24 51°13.929 2°55.575 -999 -999 -999 -999 -999
2007-03-29 05:12:29 51°13.939 2°55.569 -999 -999 -999 -999 -999
2007-03-29 05:12:34 51°13.949 2°55.562 -999 -999 -999 -999 -999
2007-03-29 05:12:39 51°13.959 2°55.557 -999 -999 -999 -999 -999
2007-03-29 05:12:44 51°13.969 2°55.55 -999 -999 -999 -999 -999
2007-03-29 05:12:49 51°13.979 2°55.544 -999 -999 -999 -999 -999
2007-03-29 05:12:54 51°13.989 2°55.538 -999 -999 -999 -999 -999
2007-03-29 05:12:59 51°13.998 2°55.532 -999 -999 -999 -999 -999
2007-03-29 05:13:04 51°14.008 2°55.526 -999 -999 -999 -999 -999
2007-03-29 05:13:09 51°14.018 2°55.519 -999 -999 -999 -999 -999
2007-03-29 05:13:14 51°14.028 2°55.513 -999 -999 -999 -999 -999
2007-03-29 05:13:19 51°14.038 2°55.507 -999 -999 -999 -999 -999
2007-03-29 05:13:24 51°14.048 2°55.5 -999 -999 -999 -999 -999
2007-03-29 05:13:29 51°14.058 2°55.493 -999 -999 -999 -999 -999
2007-03-29 05:13:34 51°14.068 2°55.486 -999 -999 -999 -999 -999
2007-03-29 05:13:39 51°14.077 2°55.479 -999 -999 -999 -999 -999
2007-03-29 05:13:44 51°14.087 2°55.472 -999 -999 -999 -999 -999
2007-03-29 05:13:49 51°14.097 2°55.465 -999 -999 -999 -999 -999
2007-03-29 05:13:54 51°14.106 2°55.458 -999 -999 -999 -999 -999
2007-03-29 05:13:59 51°14.116 2°55.451 -999 -999 -999 -999 -999
2007-03-29 05:14:04 51°14.126 2°55.443 -999 -999 -999 -999 -999
2007-03-29 05:14:09 51°14.135 2°55.436 -999 -999 -999 -999 -999
2007-03-29 05:14:14 51°14.145 2°55.428 -999 -999 -999 -999 -999
2007-03-29 05:14:19 51°14.155 2°55.42 -999 -999 -999 -999 -999
2007-03-29 05:14:24 51°14.165 2°55.411 -999 -999 -999 -999 -999
2007-03-29 05:14:29 51°14.175 2°55.402 -999 -999 -999 -999 -999
2007-03-29 05:14:34 51°14.185 2°55.393 -999 -999 -999 -999 -999
2007-03-29 05:14:39 51°14.195 2°55.382 -999 -999 -999 -999 -999
2007-03-29 05:14:44 51°14.205 2°55.371 -999 -999 -999 -999 -999
2007-03-29 05:14:49 51°14.214 2°55.359 -999 -999 -999 -999 -999
2007-03-29 05:14:54 51°14.224 2°55.347 -999 -999 -999 -999 -999
2007-03-29 05:14:59 51°14.233 2°55.334 -999 -999 -999 -999 -999
2007-03-29 05:15:04 51°14.242 2°55.32 -999 -999 -999 -999 -999
2007-03-29 05:15:09 51°14.252 2°55.306 -999 -999 -999 -999 -999
2007-03-29 05:15:14 51°14.261 2°55.29 -999 -999 -999 -999 -999
2007-03-29 05:15:19 51°14.27 2°55.275 -999 -999 -999 -999 -999
2007-03-29 05:15:24 51°14.278 2°55.259 -999 -999 -999 -999 -999
2007-03-29 05:15:29 51°14.287 2°55.242 -999 -999 -999 -999 -999
2007-03-29 05:15:34 51°14.295 2°55.224 -999 -999 -999 -999 -999
2007-03-29 05:15:39 51°14.304 2°55.207 -999 -999 -999 -999 -999
2007-03-29 05:15:44 51°14.313 2°55.188 -999 -999 -999 -999 -999
2007-03-29 05:15:49 51°14.321 2°55.17 -999 -999 -999 -999 -999
2007-03-29 05:15:54 51°14.33 2°55.15 -999 -999 -999 -999 -999
2007-03-29 05:15:59 51°14.338 2°55.13 -999 -999 -999 -999 -999
2007-03-29 05:16:04 51°14.347 2°55.11 -999 -999 -999 -999 -999
2007-03-29 05:16:09 51°14.357 2°55.09 -999 -999 -999 -999 -999
2007-03-29 05:16:14 51°14.367 2°55.069 -999 -999 -999 -999 -999
2007-03-29 05:16:19 51°14.377 2°55.048 -999 -999 -999 -999 -999
2007-03-29 05:16:25 51°14.388 2°55.022 -999 -999 -999 -999 -999
2007-03-29 05:16:30 51°14.398 2°55 -999 -999 -999 -999 -999
2007-03-29 05:16:34 51°14.405 2°54.981 -999 -999 -999 -999 -999
2007-03-29 05:16:40 51°14.414 2°54.95 -999 -999 -999 -999 -999
2007-03-29 05:16:45 51°14.421 2°54.925 -999 -999 -999 -999 -999
2007-03-29 05:16:50 51°14.429 2°54.899 -999 -999 -999 -999 -999
2007-03-29 05:16:54 51°14.435 2°54.878 -999 -999 -999 -999 -999
2007-03-29 05:17:00 51°14.445 2°54.846 -999 -999 -999 -999 -999
2007-03-29 05:17:05 51°14.452 2°54.82 -999 -999 -999 -999 -999
2007-03-29 05:17:10 51°14.46 2°54.794 -999 -999 -999 -999 -999
2007-03-29 05:17:14 51°14.467 2°54.773 -999 -999 -999 -999 -999
2007-03-29 05:17:20 51°14.477 2°54.741 -999 -999 -999 -999 -999
2007-03-29 05:17:25 51°14.486 2°54.715 -999 -999 -999 -999 -999
2007-03-29 05:17:29 51°14.493 2°54.695 -999 -999 -999 -999 -999
2007-03-29 05:17:35 51°14.506 2°54.666 -999 -999 -999 -999 -999
2007-03-29 05:17:40 51°14.518 2°54.645 -999 -999 -999 -999 -999
2007-03-29 05:17:45 51°14.532 2°54.626 -999 -999 -999 -999 -999
2007-03-29 05:17:50 51°14.546 2°54.609 -999 -999 -999 -999 -999
2007-03-29 05:17:54 51°14.557 2°54.595 -999 -999 -999 -999 -999
2007-03-29 05:18:00 51°14.575 2°54.576 -999 -999 -999 -999 -999
2007-03-29 05:18:05 51°14.591 2°54.562 -999 -999 -999 -999 -999
2007-03-29 05:18:09 51°14.603 2°54.551 -999 -999 -999 -999 -999
2007-03-29 05:18:14 51°14.619 2°54.538 -999 -999 -999 -999 -999
2007-03-29 05:18:19 51°14.634 2°54.524 -999 -999 -999 -999 -999
2007-03-29 05:18:24 51°14.65 2°54.51 -999 -999 -999 -999 -999
2007-03-29 05:18:29 51°14.666 2°54.496 -999 -999 -999 -999 -999
2007-03-29 05:18:34 51°14.681 2°54.482 -999 -999 -999 -999 -999
2007-03-29 05:18:40 51°14.7 2°54.465 -999 -999 -999 -999 -999
2007-03-29 05:18:44 51°14.712 2°54.453 -999 -999 -999 -999 -999
2007-03-29 05:18:49 51°14.728 2°54.44 -999 -999 -999 -999 -999
2007-03-29 05:18:54 51°14.744 2°54.427 -999 -999 -999 -999 -999
2007-03-29 05:18:59 51°14.76 2°54.415 -999 -999 -999 -999 -999
2007-03-29 05:19:04 51°14.777 2°54.404 -999 -999 -999 -999 -999
2007-03-29 05:19:09 51°14.793 2°54.394 -999 -999 -999 -999 -999
2007-03-29 05:19:14 51°14.81 2°54.385 -999 -999 -999 -999 -999
2007-03-29 05:19:20 51°14.83 2°54.372 -999 -999 -999 -999 -999
2007-03-29 05:19:24 51°14.843 2°54.363 -999 -999 -999 -999 -999
2007-03-29 05:19:29 51°14.858 2°54.35 -999 -999 -999 -999 -999
2007-03-29 05:19:34 51°14.873 2°54.334 -999 -999 -999 -999 -999
2007-03-29 05:19:39 51°14.887 2°54.317 -999 -999 -999 -999 -999
2007-03-29 05:19:44 51°14.9 2°54.297 -999 -999 -999 -999 -999
2007-03-29 05:19:49 51°14.912 2°54.276 -999 -999 -999 -999 -999
2007-03-29 05:19:54 51°14.924 2°54.255 -999 -999 -999 -999 -999
2007-03-29 05:19:59 51°14.934 2°54.232 -999 -999 -999 -999 -999
2007-03-29 05:20:04 51°14.944 2°54.209 -999 -999 -999 -999 -999
2007-03-29 05:20:10 51°14.956 2°54.18 -999 -999 -999 -999 -999
2007-03-29 05:20:14 51°14.963 2°54.16 -999 -999 -999 -999 -999
2007-03-29 05:20:20 51°14.973 2°54.13 -999 -999 -999 -999 -999
2007-03-29 05:20:25 51°14.982 2°54.104 -999 -999 -999 -999 -999
2007-03-29 05:20:29 51°14.988 2°54.084 -999 -999 -999 -999 -999
2007-03-29 05:20:34 51°14.997 2°54.058 -999 -999 -999 -999 -999
2007-03-29 05:20:40 51°15.007 2°54.027 -999 -999 -999 -999 -999
2007-03-29 05:20:45 51°15.016 2°54.001 -999 -999 -999 -999 -999
2007-03-29 05:20:50 51°15.025 2°53.975 -999 -999 -999 -999 -999
2007-03-29 05:20:54 51°15.032 2°53.954 -999 -999 -999 -999 -999
2007-03-29 05:21:00 51°15.043 2°53.923 -999 -999 -999 -999 -999
2007-03-29 05:21:05 51°15.052 2°53.898 -999 -999 -999 -999 -999
2007-03-29 05:21:10 51°15.061 2°53.872 -999 -999 -999 -999 -999
2007-03-29 05:21:14 51°15.068 2°53.851 -999 -999 -999 -999 -999
2007-03-29 05:21:20 51°15.078 2°53.82 -999 -999 -999 -999 -999
2007-03-29 05:21:24 51°15.085 2°53.798 -999 -999 -999 -999 -999
2007-03-29 05:21:29 51°15.092 2°53.771 -999 -999 -999 -999 -999
2007-03-29 05:21:34 51°15.1 2°53.744 -999 -999 -999 -999 -999
2007-03-29 05:21:40 51°15.108 2°53.711 -999 -999 -999 -999 -999
2007-03-29 05:21:45 51°15.115 2°53.683 -999 -999 -999 -999 -999
2007-03-29 05:21:49 51°15.121 2°53.661 -999 -999 -999 -999 -999
2007-03-29 05:21:54 51°15.128 2°53.633 -999 -999 -999 -999 -999
2007-03-29 05:22:00 51°15.136 2°53.6 -999 -999 -999 -999 -999
2007-03-29 05:22:05 51°15.142 2°53.571 -999 -999 -999 -999 -999
2007-03-29 05:22:09 51°15.146 2°53.548 -999 -999 -999 -999 -999
2007-03-29 05:22:14 51°15.152 2°53.52 -999 -999 -999 -999 -999
2007-03-29 05:22:19 51°15.157 2°53.491 -999 -999 -999 -999 -999
2007-03-29 05:22:24 51°15.162 2°53.461 -999 -999 -999 -999 -999
2007-03-29 05:22:29 51°15.167 2°53.432 -999 -999 -999 -999 -999
2007-03-29 05:22:34 51°15.172 2°53.403 -999 -999 -999 -999 -999
2007-03-29 05:22:39 51°15.177 2°53.374 -999 -999 -999 -999 -999
2007-03-29 05:22:44 51°15.182 2°53.344 -999 -999 -999 -999 -999
2007-03-29 05:22:49 51°15.187 2°53.315 -999 -999 -999 -999 -999
2007-03-29 05:22:54 51°15.192 2°53.286 -999 -999 -999 -999 -999
2007-03-29 05:23:00 51°15.197 2°53.25 -999 -999 -999 -999 -999
2007-03-29 05:23:04 51°15.201 2°53.227 -999 -999 -999 -999 -999
2007-03-29 05:23:09 51°15.205 2°53.197 -999 -999 -999 -999 -999
2007-03-29 05:23:14 51°15.209 2°53.167 -999 -999 -999 -999 -999
2007-03-29 05:23:19 51°15.213 2°53.138 -999 -999 -999 -999 -999
2007-03-29 05:23:25 51°15.218 2°53.102 -999 -999 -999 -999 -999
2007-03-29 05:23:29 51°15.221 2°53.078 -999 -999 -999 -999 -999
2007-03-29 05:23:34 51°15.224 2°53.048 -999 -999 -999 -999 -999
2007-03-29 05:23:40 51°15.229 2°53.013 -999 -999 -999 -999 -999
2007-03-29 05:23:44 51°15.232 2°52.989 -999 -999 -999 -999 -999
2007-03-29 05:23:49 51°15.237 2°52.959 -999 -999 -999 -999 -999
2007-03-29 05:23:54 51°15.241 2°52.929 -999 -999 -999 -999 -999
2007-03-29 05:23:59 51°15.245 2°52.9 -999 -999 -999 -999 -999
2007-03-29 05:24:04 51°15.249 2°52.87 -999 -999 -999 -999 -999
2007-03-29 05:24:09 51°15.253 2°52.84 -999 -999 -999 -999 -999
2007-03-29 05:24:14 51°15.257 2°52.81 -999 -999 -999 -999 -999
2007-03-29 05:24:19 51°15.261 2°52.781 -999 -999 -999 -999 -999
2007-03-29 05:24:24 51°15.264 2°52.751 -999 -999 -999 -999 -999
2007-03-29 05:24:29 51°15.268 2°52.721 -999 -999 -999 -999 -999
2007-03-29 05:24:34 51°15.272 2°52.691 -999 -999 -999 -999 -999
2007-03-29 05:24:39 51°15.275 2°52.661 -999 -999 -999 -999 -999
2007-03-29 05:24:44 51°15.279 2°52.631 -999 -999 -999 -999 -999
2007-03-29 05:24:49 51°15.283 2°52.601 -999 -999 -999 -999 -999
2007-03-29 05:24:54 51°15.287 2°52.571 -999 -999 -999 -999 -999
2007-03-29 05:24:59 51°15.291 2°52.542 -999 -999 -999 -999 -999
2007-03-29 05:25:04 51°15.295 2°52.512 -999 -999 -999 -999 -999
2007-03-29 05:25:09 51°15.299 2°52.482 -999 -999 -999 -999 -999
2007-03-29 05:25:14 51°15.303 2°52.452 -999 -999 -999 -999 -999
2007-03-29 05:25:19 51°15.306 2°52.422 -999 -999 -999 -999 -999
2007-03-29 05:25:24 51°15.31 2°52.392 -999 -999 -999 -999 -999
2007-03-29 05:25:29 51°15.313 2°52.363 -999 -999 -999 -999 -999
2007-03-29 05:25:34 51°15.317 2°52.333 -999 -999 -999 -999 -999
2007-03-29 05:25:40 51°15.322 2°52.297 -999 -999 -999 -999 -999
2007-03-29 05:25:45 51°15.326 2°52.268 -999 -999 -999 -999 -999
2007-03-29 05:25:49 51°15.328 2°52.244 -999 -999 -999 -999 -999
2007-03-29 05:25:54 51°15.332 2°52.214 -999 -999 -999 -999 -999
2007-03-29 05:25:59 51°15.336 2°52.185 -999 -999 -999 -999 -999
2007-03-29 05:26:04 51°15.34 2°52.155 -999 -999 -999 -999 -999
2007-03-29 05:26:09 51°15.344 2°52.125 -999 -999 -999 -999 -999
2007-03-29 05:26:14 51°15.348 2°52.096 -999 -999 -999 -999 -999
2007-03-29 05:26:19 51°15.352 2°52.066 -999 -999 -999 -999 -999
2007-03-29 05:26:24 51°15.356 2°52.037 -999 -999 -999 -999 -999
2007-03-29 05:26:29 51°15.36 2°52.007 -999 -999 -999 -999 -999
2007-03-29 05:26:34 51°15.364 2°51.978 -999 -999 -999 -999 -999
2007-03-29 05:26:39 51°15.368 2°51.948 -999 -999 -999 -999 -999
2007-03-29 05:26:44 51°15.372 2°51.918 -999 -999 -999 -999 -999
2007-03-29 05:26:49 51°15.375 2°51.889 -999 -999 -999 -999 -999
2007-03-29 05:26:54 51°15.379 2°51.859 -999 -999 -999 -999 -999
2007-03-29 05:26:59 51°15.383 2°51.83 -999 -999 -999 -999 -999
2007-03-29 05:27:04 51°15.387 2°51.8 -999 -999 -999 -999 -999
2007-03-29 05:27:09 51°15.391 2°51.771 -999 -999 -999 -999 -999
2007-03-29 05:27:14 51°15.395 2°51.741 -999 -999 -999 -999 -999
2007-03-29 05:27:19 51°15.398 2°51.712 -999 -999 -999 -999 -999
2007-03-29 05:27:24 51°15.402 2°51.682 -999 -999 -999 -999 -999
2007-03-29 05:27:29 51°15.406 2°51.653 -999 -999 -999 -999 -999
2007-03-29 05:27:34 51°15.41 2°51.623 -999 -999 -999 -999 -999
2007-03-29 05:27:39 51°15.413 2°51.594 -999 -999 -999 -999 -999
2007-03-29 05:27:44 51°15.417 2°51.564 -999 -999 -999 -999 -999
2007-03-29 05:27:49 51°15.421 2°51.535 -999 -999 -999 -999 -999
2007-03-29 05:27:54 51°15.426 2°51.505 -999 -999 -999 -999 -999
2007-03-29 05:27:59 51°15.43 2°51.476 -999 -999 -999 -999 -999
2007-03-29 05:28:04 51°15.434 2°51.447 -999 -999 -999 -999 -999
2007-03-29 05:28:09 51°15.438 2°51.418 -999 -999 -999 -999 -999
2007-03-29 05:28:14 51°15.442 2°51.388 -999 -999 -999 -999 -999
2007-03-29 05:28:19 51°15.446 2°51.359 -999 -999 -999 -999 -999
2007-03-29 05:28:24 51°15.45 2°51.33 -999 -999 -999 -999 -999
2007-03-29 05:28:29 51°15.454 2°51.301 -999 -999 -999 -999 -999
2007-03-29 05:28:34 51°15.457 2°51.272 -999 -999 -999 -999 -999
2007-03-29 05:28:39 51°15.461 2°51.242 -999 -999 -999 -999 -999
2007-03-29 05:28:44 51°15.465 2°51.213 -999 -999 -999 -999 -999
2007-03-29 05:28:49 51°15.469 2°51.184 -999 -999 -999 -999 -999
2007-03-29 05:28:54 51°15.473 2°51.155 -999 -999 -999 -999 -999
2007-03-29 05:28:59 51°15.477 2°51.126 -999 -999 -999 -999 -999
2007-03-29 05:29:04 51°15.481 2°51.097 -999 -999 -999 -999 -999
2007-03-29 05:29:09 51°15.485 2°51.068 -999 -999 -999 -999 -999
2007-03-29 05:29:14 51°15.489 2°51.039 -999 -999 -999 -999 -999
2007-03-29 05:29:19 51°15.493 2°51.01 -999 -999 -999 -999 -999
2007-03-29 05:29:24 51°15.498 2°50.981 -999 -999 -999 -999 -999
2007-03-29 05:29:29 51°15.501 2°50.952 -999 -999 -999 -999 -999
2007-03-29 05:29:34 51°15.506 2°50.922 -999 -999 -999 -999 -999
2007-03-29 05:29:39 51°15.509 2°50.894 -999 -999 -999 -999 -999
2007-03-29 05:29:44 51°15.514 2°50.865 -999 -999 -999 -999 -999
2007-03-29 05:29:49 51°15.518 2°50.836 -999 -999 -999 -999 -999
2007-03-29 05:29:54 51°15.522 2°50.807 -999 -999 -999 -999 -999
2007-03-29 05:29:59 51°15.526 2°50.778 -999 -999 -999 -999 -999
2007-03-29 05:30:04 51°15.53 2°50.749 -999 -999 -999 -999 -999
2007-03-29 05:30:09 51°15.534 2°50.72 -999 -999 -999 -999 -999
2007-03-29 05:30:14 51°15.538 2°50.691 -999 -999 -999 -999 -999
2007-03-29 05:30:19 51°15.542 2°50.661 -999 -999 -999 -999 -999
2007-03-29 05:30:24 51°15.546 2°50.632 -999 -999 -999 -999 -999
2007-03-29 05:30:29 51°15.55 2°50.603 -999 -999 -999 -999 -999
2007-03-29 05:30:34 51°15.554 2°50.574 -999 -999 -999 -999 -999
2007-03-29 05:30:39 51°15.558 2°50.545 -999 -999 -999 -999 -999
2007-03-29 05:30:44 51°15.562 2°50.516 -999 -999 -999 -999 -999
2007-03-29 05:30:49 51°15.566 2°50.487 -999 -999 -999 -999 -999
2007-03-29 05:30:54 51°15.57 2°50.458 -999 -999 -999 -999 -999
2007-03-29 05:30:59 51°15.574 2°50.429 -999 -999 -999 -999 -999
2007-03-29 05:31:04 51°15.578 2°50.4 -999 -999 -999 -999 -999
2007-03-29 05:31:09 51°15.582 2°50.371 -999 -999 -999 -999 -999
2007-03-29 05:31:14 51°15.586 2°50.342 -999 -999 -999 -999 -999
2007-03-29 05:31:19 51°15.59 2°50.313 -999 -999 -999 -999 -999
2007-03-29 05:31:24 51°15.594 2°50.284 -999 -999 -999 -999 -999
2007-03-29 05:31:29 51°15.598 2°50.255 -999 -999 -999 -999 -999
2007-03-29 05:31:34 51°15.602 2°50.226 -999 -999 -999 -999 -999
2007-03-29 05:31:39 51°15.606 2°50.197 -999 -999 -999 -999 -999
2007-03-29 05:31:44 51°15.61 2°50.168 -999 -999 -999 -999 -999
2007-03-29 05:31:49 51°15.614 2°50.139 -999 -999 -999 -999 -999
2007-03-29 05:31:54 51°15.618 2°50.11 -999 -999 -999 -999 -999
2007-03-29 05:31:59 51°15.622 2°50.081 -999 -999 -999 -999 -999
2007-03-29 05:32:04 51°15.626 2°50.052 -999 -999 -999 -999 -999
2007-03-29 05:32:09 51°15.63 2°50.022 -999 -999 -999 -999 -999
2007-03-29 05:32:14 51°15.634 2°49.993 -999 -999 -999 -999 -999
2007-03-29 05:32:19 51°15.638 2°49.964 -999 -999 -999 -999 -999
2007-03-29 05:32:24 51°15.642 2°49.935 -999 -999 -999 -999 -999
2007-03-29 05:32:29 51°15.645 2°49.906 -999 -999 -999 -999 -999
2007-03-29 05:32:34 51°15.649 2°49.877 -999 -999 -999 -999 -999
2007-03-29 05:32:39 51°15.653 2°49.848 -999 -999 -999 -999 -999
2007-03-29 05:32:45 51°15.658 2°49.813 -999 -999 -999 -999 -999
2007-03-29 05:32:49 51°15.661 2°49.79 -999 -999 -999 -999 -999
2007-03-29 05:32:54 51°15.665 2°49.761 -999 -999 -999 -999 -999
2007-03-29 05:32:59 51°15.67 2°49.732 -999 -999 -999 -999 -999
2007-03-29 05:33:04 51°15.674 2°49.703 -999 -999 -999 -999 -999
2007-03-29 05:33:09 51°15.679 2°49.674 -999 -999 -999 -999 -999
2007-03-29 05:33:14 51°15.684 2°49.645 -999 -999 -999 -999 -999
2007-03-29 05:33:19 51°15.687 2°49.616 -999 -999 -999 -999 -999
2007-03-29 05:33:24 51°15.691 2°49.587 -999 -999 -999 -999 -999
2007-03-29 05:33:29 51°15.695 2°49.558 -999 -999 -999 -999 -999
2007-03-29 05:33:34 51°15.699 2°49.53 -999 -999 -999 -999 -999
2007-03-29 05:33:39 51°15.703 2°49.501 -999 -999 -999 -999 -999
2007-03-29 05:33:44 51°15.707 2°49.472 -999 -999 -999 -999 -999
2007-03-29 05:33:49 51°15.711 2°49.443 -999 -999 -999 -999 -999
2007-03-29 05:33:54 51°15.715 2°49.415 -999 -999 -999 -999 -999
2007-03-29 05:33:59 51°15.719 2°49.386 -999 -999 -999 -999 -999
2007-03-29 05:34:04 51°15.723 2°49.358 -999 -999 -999 -999 -999
2007-03-29 05:34:09 51°15.727 2°49.329 -999 -999 -999 -999 -999
2007-03-29 05:34:14 51°15.731 2°49.3 -999 -999 -999 -999 -999
2007-03-29 05:34:19 51°15.735 2°49.272 -999 -999 -999 -999 -999
2007-03-29 05:34:24 51°15.739 2°49.243 -999 -999 -999 -999 -999
2007-03-29 05:34:30 51°15.744 2°49.208 -999 -999 -999 -999 -999
2007-03-29 05:34:34 51°15.747 2°49.185 -999 -999 -999 -999 -999
2007-03-29 05:34:39 51°15.751 2°49.157 -999 -999 -999 -999 -999
2007-03-29 05:34:44 51°15.755 2°49.128 -999 -999 -999 -999 -999
2007-03-29 05:34:49 51°15.759 2°49.099 -999 -999 -999 -999 -999
2007-03-29 05:34:54 51°15.764 2°49.07 -999 -999 -999 -999 -999
2007-03-29 05:34:59 51°15.767 2°49.042 -999 -999 -999 -999 -999
2007-03-29 05:35:04 51°15.771 2°49.013 -999 -999 -999 -999 -999
2007-03-29 05:35:09 51°15.774 2°48.984 -999 -999 -999 -999 -999
2007-03-29 05:35:14 51°15.778 2°48.955 -999 -999 -999 -999 -999
2007-03-29 05:35:19 51°15.782 2°48.926 -999 -999 -999 -999 -999
2007-03-29 05:35:24 51°15.786 2°48.897 -999 -999 -999 -999 -999
2007-03-29 05:35:29 51°15.79 2°48.867 -999 -999 -999 -999 -999
2007-03-29 05:35:34 51°15.794 2°48.839 -999 -999 -999 -999 -999
2007-03-29 05:35:39 51°15.798 2°48.809 -999 -999 -999 -999 -999
2007-03-29 05:35:44 51°15.802 2°48.78 -999 -999 -999 -999 -999
2007-03-29 05:35:49 51°15.806 2°48.751 -999 -999 -999 -999 -999
2007-03-29 05:35:54 51°15.81 2°48.722 -999 -999 -999 -999 -999
2007-03-29 05:35:59 51°15.814 2°48.692 -999 -999 -999 -999 -999
2007-03-29 05:36:04 51°15.818 2°48.663 -999 -999 -999 -999 -999
2007-03-29 05:36:09 51°15.822 2°48.634 -999 -999 -999 -999 -999
2007-03-29 05:36:14 51°15.826 2°48.605 -999 -999 -999 -999 -999
2007-03-29 05:36:19 51°15.83 2°48.575 -999 -999 -999 -999 -999
2007-03-29 05:36:24 51°15.834 2°48.546 -999 -999 -999 -999 -999
2007-03-29 05:36:29 51°15.838 2°48.517 -999 -999 -999 -999 -999
2007-03-29 05:36:34 51°15.842 2°48.487 -999 -999 -999 -999 -999
2007-03-29 05:36:39 51°15.846 2°48.458 -999 -999 -999 -999 -999
2007-03-29 05:36:44 51°15.85 2°48.429 -999 -999 -999 -999 -999
2007-03-29 05:36:49 51°15.854 2°48.399 -999 -999 -999 -999 -999
2007-03-29 05:36:54 51°15.858 2°48.37 -999 -999 -999 -999 -999
2007-03-29 05:36:59 51°15.862 2°48.34 -999 -999 -999 -999 -999
2007-03-29 05:37:04 51°15.866 2°48.311 -999 -999 -999 -999 -999
2007-03-29 05:37:09 51°15.87 2°48.281 -999 -999 -999 -999 -999
2007-03-29 05:37:14 51°15.875 2°48.252 -999 -999 -999 -999 -999
2007-03-29 05:37:19 51°15.879 2°48.223 -999 -999 -999 -999 -999
2007-03-29 05:37:24 51°15.883 2°48.193 -999 -999 -999 -999 -999
2007-03-29 05:37:29 51°15.887 2°48.163 -999 -999 -999 -999 -999
2007-03-29 05:37:34 51°15.891 2°48.134 -999 -999 -999 -999 -999
2007-03-29 05:37:39 51°15.895 2°48.104 -999 -999 -999 -999 -999
2007-03-29 05:37:44 51°15.899 2°48.075 -999 -999 -999 -999 -999
2007-03-29 05:37:49 51°15.903 2°48.045 -999 -999 -999 -999 -999
2007-03-29 05:37:54 51°15.906 2°48.015 -999 -999 -999 -999 -999
2007-03-29 05:37:59 51°15.91 2°47.986 -999 -999 -999 -999 -999
2007-03-29 05:38:04 51°15.914 2°47.956 -999 -999 -999 -999 -999
2007-03-29 05:38:09 51°15.918 2°47.927 -999 -999 -999 -999 -999
2007-03-29 05:38:14 51°15.922 2°47.897 -999 -999 -999 -999 -999
2007-03-29 05:38:19 51°15.927 2°47.868 -999 -999 -999 -999 -999
2007-03-29 05:38:24 51°15.931 2°47.838 -999 -999 -999 -999 -999
2007-03-29 05:38:29 51°15.935 2°47.808 -999 -999 -999 -999 -999
2007-03-29 05:38:34 51°15.939 2°47.779 -999 -999 -999 -999 -999
2007-03-29 05:38:39 51°15.943 2°47.75 -999 -999 -999 -999 -999
2007-03-29 05:38:44 51°15.947 2°47.72 -999 -999 -999 -999 -999
2007-03-29 05:38:49 51°15.951 2°47.69 -999 -999 -999 -999 -999
2007-03-29 05:38:54 51°15.955 2°47.661 -999 -999 -999 -999 -999
2007-03-29 05:38:59 51°15.959 2°47.631 -999 -999 -999 -999 -999
2007-03-29 05:39:04 51°15.963 2°47.601 -999 -999 -999 -999 -999
2007-03-29 05:39:09 51°15.968 2°47.572 -999 -999 -999 -999 -999
2007-03-29 05:39:14 51°15.972 2°47.542 -999 -999 -999 -999 -999
2007-03-29 05:39:19 51°15.976 2°47.513 -999 -999 -999 -999 -999
2007-03-29 05:39:24 51°15.981 2°47.483 -999 -999 -999 -999 -999
2007-03-29 05:39:29 51°15.985 2°47.453 -999 -999 -999 -999 -999
2007-03-29 05:39:34 51°15.99 2°47.424 -999 -999 -999 -999 -999
2007-03-29 05:39:39 51°15.994 2°47.394 -999 -999 -999 -999 -999
2007-03-29 05:39:44 51°15.998 2°47.365 -999 -999 -999 -999 -999
2007-03-29 05:39:49 51°16.002 2°47.335 -999 -999 -999 -999 -999
2007-03-29 05:39:54 51°16.007 2°47.306 -999 -999 -999 -999 -999
2007-03-29 05:39:59 51°16.011 2°47.276 -999 -999 -999 -999 -999
2007-03-29 05:40:04 51°16.015 2°47.247 -999 -999 -999 -999 -999
2007-03-29 05:40:09 51°16.02 2°47.217 -999 -999 -999 -999 -999
2007-03-29 05:40:14 51°16.024 2°47.188 -999 -999 -999 -999 -999
2007-03-29 05:40:19 51°16.029 2°47.159 -999 -999 -999 -999 -999
2007-03-29 05:40:24 51°16.033 2°47.129 -999 -999 -999 -999 -999
2007-03-29 05:40:29 51°16.038 2°47.1 -999 -999 -999 -999 -999
2007-03-29 05:40:34 51°16.042 2°47.07 -999 -999 -999 -999 -999
2007-03-29 05:40:39 51°16.046 2°47.041 -999 -999 -999 -999 -999
2007-03-29 05:40:44 51°16.051 2°47.012 -999 -999 -999 -999 -999
2007-03-29 05:40:49 51°16.055 2°46.983 -999 -999 -999 -999 -999
2007-03-29 05:40:54 51°16.059 2°46.953 -999 -999 -999 -999 -999
2007-03-29 05:40:59 51°16.063 2°46.924 -999 -999 -999 -999 -999
2007-03-29 05:41:04 51°16.067 2°46.895 -999 -999 -999 -999 -999
2007-03-29 05:41:09 51°16.07 2°46.866 -999 -999 -999 -999 -999
2007-03-29 05:41:14 51°16.074 2°46.837 -999 -999 -999 -999 -999
2007-03-29 05:41:19 51°16.078 2°46.809 -999 -999 -999 -999 -999
2007-03-29 05:41:24 51°16.082 2°46.78 -999 -999 -999 -999 -999
2007-03-29 05:41:29 51°16.086 2°46.751 -999 -999 -999 -999 -999
2007-03-29 05:41:34 51°16.09 2°46.723 -999 -999 -999 -999 -999
2007-03-29 05:41:39 51°16.094 2°46.694 -999 -999 -999 -999 -999
2007-03-29 05:41:44 51°16.098 2°46.666 -999 -999 -999 -999 -999
2007-03-29 05:41:49 51°16.102 2°46.637 -999 -999 -999 -999 -999
2007-03-29 05:41:54 51°16.106 2°46.609 -999 -999 -999 -999 -999
2007-03-29 05:41:59 51°16.11 2°46.581 -999 -999 -999 -999 -999
2007-03-29 05:42:04 51°16.114 2°46.552 -999 -999 -999 -999 -999
2007-03-29 05:42:09 51°16.118 2°46.524 -999 -999 -999 -999 -999
2007-03-29 05:42:14 51°16.122 2°46.495 -999 -999 -999 -999 -999
2007-03-29 05:42:19 51°16.126 2°46.467 -999 -999 -999 -999 -999
2007-03-29 05:42:24 51°16.131 2°46.439 -999 -999 -999 -999 -999
2007-03-29 05:42:29 51°16.135 2°46.41 -999 -999 -999 -999 -999
2007-03-29 05:42:34 51°16.139 2°46.382 -999 -999 -999 -999 -999
2007-03-29 05:42:39 51°16.143 2°46.353 -999 -999 -999 -999 -999
2007-03-29 05:42:44 51°16.147 2°46.325 -999 -999 -999 -999 -999
2007-03-29 05:42:49 51°16.151 2°46.297 -999 -999 -999 -999 -999
2007-03-29 05:42:54 51°16.155 2°46.269 -999 -999 -999 -999 -999
2007-03-29 05:42:59 51°16.159 2°46.241 -999 -999 -999 -999 -999
2007-03-29 05:43:04 51°16.162 2°46.213 -999 -999 -999 -999 -999
2007-03-29 05:43:09 51°16.167 2°46.185 -999 -999 -999 -999 -999
2007-03-29 05:43:14 51°16.17 2°46.156 -999 -999 -999 -999 -999
2007-03-29 05:43:19 51°16.174 2°46.128 -999 -999 -999 -999 -999
2007-03-29 05:43:24 51°16.178 2°46.099 -999 -999 -999 -999 -999
2007-03-29 05:43:29 51°16.182 2°46.071 -999 -999 -999 -999 -999
2007-03-29 05:43:34 51°16.186 2°46.043 -999 -999 -999 -999 -999
2007-03-29 05:43:39 51°16.19 2°46.015 -999 -999 -999 -999 -999
2007-03-29 05:43:44 51°16.194 2°45.986 -999 -999 -999 -999 -999
2007-03-29 05:43:49 51°16.198 2°45.958 -999 -999 -999 -999 -999
2007-03-29 05:43:54 51°16.202 2°45.93 -999 -999 -999 -999 -999
2007-03-29 05:43:59 51°16.206 2°45.902 -999 -999 -999 -999 -999
2007-03-29 05:44:04 51°16.21 2°45.873 -999 -999 -999 -999 -999
2007-03-29 05:44:09 51°16.214 2°45.845 -999 -999 -999 -999 -999
2007-03-29 05:44:14 51°16.218 2°45.817 -999 -999 -999 -999 -999
2007-03-29 05:44:19 51°16.225 2°45.791 -999 -999 -999 -999 -999
2007-03-29 05:44:24 51°16.231 2°45.764 -999 -999 -999 -999 -999
2007-03-29 05:44:29 51°16.239 2°45.738 -999 -999 -999 -999 -999
2007-03-29 05:44:34 51°16.247 2°45.713 -999 -999 -999 -999 -999
2007-03-29 05:44:39 51°16.255 2°45.688 -999 -999 -999 -999 -999
2007-03-29 05:44:44 51°16.263 2°45.663 -999 -999 -999 -999 -999
2007-03-29 05:44:49 51°16.271 2°45.638 -999 -999 -999 -999 -999
2007-03-29 05:44:54 51°16.28 2°45.613 -999 -999 -999 -999 -999
2007-03-29 05:44:59 51°16.288 2°45.588 -999 -999 -999 -999 -999
2007-03-29 05:45:04 51°16.297 2°45.563 -999 -999 -999 -999 -999
2007-03-29 05:45:09 51°16.305 2°45.537 -999 -999 -999 -999 -999
2007-03-29 05:45:14 51°16.313 2°45.512 -999 -999 -999 -999 -999
2007-03-29 05:45:19 51°16.322 2°45.487 -999 -999 -999 -999 -999
2007-03-29 05:45:24 51°16.33 2°45.462 -999 -999 -999 -999 -999
2007-03-29 05:45:29 51°16.338 2°45.436 -999 -999 -999 -999 -999
2007-03-29 05:45:34 51°16.347 2°45.411 -999 -999 -999 -999 -999
2007-03-29 05:45:39 51°16.355 2°45.386 -999 -999 -999 -999 -999
2007-03-29 05:45:44 51°16.364 2°45.361 -999 -999 -999 -999 -999
2007-03-29 05:45:49 51°16.372 2°45.336 -999 -999 -999 -999 -999
2007-03-29 05:45:54 51°16.381 2°45.311 -999 -999 -999 -999 -999
2007-03-29 05:45:59 51°16.389 2°45.285 -999 -999 -999 -999 -999
2007-03-29 05:46:04 51°16.398 2°45.26 -999 -999 -999 -999 -999
2007-03-29 05:46:09 51°16.406 2°45.235 -999 -999 -999 -999 -999
2007-03-29 05:46:14 51°16.415 2°45.21 -999 -999 -999 -999 -999
2007-03-29 05:46:19 51°16.424 2°45.185 -999 -999 -999 -999 -999
2007-03-29 05:46:24 51°16.433 2°45.16 -999 -999 -999 -999 -999
2007-03-29 05:46:29 51°16.443 2°45.136 -999 -999 -999 -999 -999
2007-03-29 05:46:34 51°16.453 2°45.112 -999 -999 -999 -999 -999
2007-03-29 05:46:39 51°16.462 2°45.088 -999 -999 -999 -999 -999
2007-03-29 05:46:44 51°16.472 2°45.064 -999 -999 -999 -999 -999
2007-03-29 05:46:49 51°16.482 2°45.04 -999 -999 -999 -999 -999
2007-03-29 05:46:54 51°16.492 2°45.016 -999 -999 -999 -999 -999
2007-03-29 05:46:59 51°16.502 2°44.993 -999 -999 -999 -999 -999
2007-03-29 05:47:05 51°16.514 2°44.964 -999 -999 -999 -999 -999
2007-03-29 05:47:09 51°16.522 2°44.945 -999 -999 -999 -999 -999
2007-03-29 05:47:14 51°16.532 2°44.921 -999 -999 -999 -999 -999
2007-03-29 05:47:19 51°16.542 2°44.896 -999 -999 -999 -999 -999
2007-03-29 05:47:24 51°16.551 2°44.873 -999 -999 -999 -999 -999
2007-03-29 05:47:29 51°16.561 2°44.849 -999 -999 -999 -999 -999
2007-03-29 05:47:34 51°16.571 2°44.825 -999 -999 -999 -999 -999
2007-03-29 05:47:39 51°16.58 2°44.801 -999 -999 -999 -999 -999
2007-03-29 05:47:44 51°16.59 2°44.776 -999 -999 -999 -999 -999
2007-03-29 05:47:49 51°16.6 2°44.753 -999 -999 -999 -999 -999
2007-03-29 05:47:54 51°16.61 2°44.728 -999 -999 -999 -999 -999
2007-03-29 05:47:59 51°16.619 2°44.704 -999 -999 -999 -999 -999
2007-03-29 05:48:04 51°16.629 2°44.68 -999 -999 -999 -999 -999
2007-03-29 05:48:09 51°16.639 2°44.656 -999 -999 -999 -999 -999
2007-03-29 05:48:14 51°16.649 2°44.631 -999 -999 -999 -999 -999
2007-03-29 05:48:19 51°16.659 2°44.607 -999 -999 -999 -999 -999
2007-03-29 05:48:24 51°16.668 2°44.582 -999 -999 -999 -999 -999
2007-03-29 05:48:29 51°16.678 2°44.557 -999 -999 -999 -999 -999
2007-03-29 05:48:34 51°16.688 2°44.533 -999 -999 -999 -999 -999
2007-03-29 05:48:39 51°16.697 2°44.508 -999 -999 -999 -999 -999
2007-03-29 05:48:44 51°16.707 2°44.483 -999 -999 -999 -999 -999
2007-03-29 05:48:49 51°16.717 2°44.458 -999 -999 -999 -999 -999
2007-03-29 05:48:54 51°16.727 2°44.434 -999 -999 -999 -999 -999
2007-03-29 05:48:59 51°16.736 2°44.409 -999 -999 -999 -999 -999
2007-03-29 05:49:04 51°16.746 2°44.384 -999 -999 -999 -999 -999
2007-03-29 05:49:09 51°16.756 2°44.359 -999 -999 -999 -999 -999
2007-03-29 05:49:14 51°16.765 2°44.334 -999 -999 -999 -999 -999
2007-03-29 05:49:19 51°16.775 2°44.309 -999 -999 -999 -999 -999
2007-03-29 05:49:24 51°16.785 2°44.285 -999 -999 -999 -999 -999
2007-03-29 05:49:29 51°16.795 2°44.26 -999 -999 -999 -999 -999
2007-03-29 05:49:34 51°16.804 2°44.235 -999 -999 -999 -999 -999
2007-03-29 05:49:39 51°16.814 2°44.21 -999 -999 -999 -999 -999
2007-03-29 05:49:44 51°16.824 2°44.185 -999 -999 -999 -999 -999
2007-03-29 05:49:49 51°16.833 2°44.16 -999 -999 -999 -999 -999
2007-03-29 05:49:54 51°16.843 2°44.136 -999 -999 -999 -999 -999
2007-03-29 05:49:59 51°16.853 2°44.111 -999 -999 -999 -999 -999
2007-03-29 05:50:04 51°16.862 2°44.086 -999 -999 -999 -999 -999
2007-03-29 05:50:09 51°16.872 2°44.062 -999 -999 -999 -999 -999
2007-03-29 05:50:14 51°16.882 2°44.037 -999 -999 -999 -999 -999
2007-03-29 05:50:19 51°16.891 2°44.012 -999 -999 -999 -999 -999
2007-03-29 05:50:24 51°16.901 2°43.987 -999 -999 -999 -999 -999
2007-03-29 05:50:29 51°16.911 2°43.962 -999 -999 -999 -999 -999
2007-03-29 05:50:34 51°16.92 2°43.937 -999 -999 -999 -999 -999
2007-03-29 05:50:39 51°16.929 2°43.912 -999 -999 -999 -999 -999
2007-03-29 05:50:44 51°16.939 2°43.887 -999 -999 -999 -999 -999
2007-03-29 05:50:49 51°16.948 2°43.862 -999 -999 -999 -999 -999
2007-03-29 05:50:54 51°16.958 2°43.837 -999 -999 -999 -999 -999
2007-03-29 05:50:59 51°16.968 2°43.812 -999 -999 -999 -999 -999
2007-03-29 05:51:04 51°16.978 2°43.787 -999 -999 -999 -999 -999
2007-03-29 05:51:09 51°16.988 2°43.763 -999 -999 -999 -999 -999
2007-03-29 05:51:14 51°16.998 2°43.737 -999 -999 -999 -999 -999
2007-03-29 05:51:19 51°17.007 2°43.713 -999 -999 -999 -999 -999
2007-03-29 05:51:24 51°17.017 2°43.688 -999 -999 -999 -999 -999
2007-03-29 05:51:29 51°17.027 2°43.663 -999 -999 -999 -999 -999
2007-03-29 05:51:34 51°17.037 2°43.638 -999 -999 -999 -999 -999
2007-03-29 05:51:39 51°17.047 2°43.614 -999 -999 -999 -999 -999
2007-03-29 05:51:44 51°17.057 2°43.589 -999 -999 -999 -999 -999
2007-03-29 05:51:49 51°17.066 2°43.564 -999 -999 -999 -999 -999
2007-03-29 05:51:54 51°17.076 2°43.539 -999 -999 -999 -999 -999
2007-03-29 05:51:59 51°17.086 2°43.514 -999 -999 -999 -999 -999
2007-03-29 05:52:04 51°17.096 2°43.49 -999 -999 -999 -999 -999
2007-03-29 05:52:09 51°17.106 2°43.465 -999 -999 -999 -999 -999
2007-03-29 05:52:14 51°17.116 2°43.44 -999 -999 -999 -999 -999
2007-03-29 05:52:19 51°17.126 2°43.416 -999 -999 -999 -999 -999
2007-03-29 05:52:24 51°17.136 2°43.391 -999 -999 -999 -999 -999
2007-03-29 05:52:29 51°17.146 2°43.366 -999 -999 -999 -999 -999
2007-03-29 05:52:34 51°17.156 2°43.341 -999 -999 -999 -999 -999
2007-03-29 05:52:39 51°17.166 2°43.317 -999 -999 -999 -999 -999
2007-03-29 05:52:44 51°17.176 2°43.292 -999 -999 -999 -999 -999
2007-03-29 05:52:49 51°17.185 2°43.268 -999 -999 -999 -999 -999
2007-03-29 05:52:54 51°17.195 2°43.243 -999 -999 -999 -999 -999
2007-03-29 05:52:59 51°17.205 2°43.219 -999 -999 -999 -999 -999
2007-03-29 05:53:04 51°17.215 2°43.195 -999 -999 -999 -999 -999
2007-03-29 05:53:09 51°17.225 2°43.17 -999 -999 -999 -999 -999
2007-03-29 05:53:14 51°17.235 2°43.146 -999 -999 -999 -999 -999
2007-03-29 05:53:19 51°17.245 2°43.121 -999 -999 -999 -999 -999
2007-03-29 05:53:24 51°17.255 2°43.097 -999 -999 -999 -999 -999
2007-03-29 05:53:29 51°17.265 2°43.073 -999 -999 -999 -999 -999
2007-03-29 05:53:34 51°17.275 2°43.048 -999 -999 -999 -999 -999
2007-03-29 05:53:39 51°17.285 2°43.023 -999 -999 -999 -999 -999
2007-03-29 05:53:44 51°17.295 2°42.999 -999 -999 -999 -999 -999
2007-03-29 05:53:49 51°17.305 2°42.975 -999 -999 -999 -999 -999
2007-03-29 05:53:54 51°17.315 2°42.951 -999 -999 -999 -999 -999
2007-03-29 05:53:59 51°17.325 2°42.927 -999 -999 -999 -999 -999
2007-03-29 05:54:04 51°17.335 2°42.903 -999 -999 -999 -999 -999
2007-03-29 05:54:09 51°17.345 2°42.879 -999 -999 -999 -999 -999
2007-03-29 05:54:14 51°17.355 2°42.854 -999 -999 -999 -999 -999
2007-03-29 05:54:19 51°17.365 2°42.83 -999 -999 -999 -999 -999
2007-03-29 05:54:24 51°17.375 2°42.807 -999 -999 -999 -999 -999
2007-03-29 05:54:29 51°17.385 2°42.782 -999 -999 -999 -999 -999
2007-03-29 05:54:34 51°17.395 2°42.757 -999 -999 -999 -999 -999
2007-03-29 05:54:39 51°17.406 2°42.732 -999 -999 -999 -999 -999
2007-03-29 05:54:44 51°17.416 2°42.708 -999 -999 -999 -999 -999
2007-03-29 05:54:49 51°17.426 2°42.683 -999 -999 -999 -999 -999
2007-03-29 05:54:54 51°17.437 2°42.658 -999 -999 -999 -999 -999
2007-03-29 05:54:59 51°17.447 2°42.633 -999 -999 -999 -999 -999
2007-03-29 05:55:04 51°17.457 2°42.609 -999 -999 -999 -999 -999
2007-03-29 05:55:09 51°17.468 2°42.583 -999 -999 -999 -999 -999
2007-03-29 05:55:14 51°17.478 2°42.558 -999 -999 -999 -999 -999
2007-03-29 05:55:19 51°17.488 2°42.533 -999 -999 -999 -999 -999
2007-03-29 05:55:24 51°17.499 2°42.508 -999 -999 -999 -999 -999
2007-03-29 05:55:29 51°17.509 2°42.483 -999 -999 -999 -999 -999
2007-03-29 05:55:34 51°17.519 2°42.458 -999 -999 -999 -999 -999
2007-03-29 05:55:39 51°17.529 2°42.434 -999 -999 -999 -999 -999
2007-03-29 05:55:44 51°17.539 2°42.409 -999 -999 -999 -999 -999
2007-03-29 05:55:49 51°17.549 2°42.384 -999 -999 -999 -999 -999
2007-03-29 05:55:54 51°17.56 2°42.359 -999 -999 -999 -999 -999
2007-03-29 05:55:59 51°17.569 2°42.335 -999 -999 -999 -999 -999
2007-03-29 05:56:04 51°17.58 2°42.31 -999 -999 -999 -999 -999
2007-03-29 05:56:09 51°17.59 2°42.286 -999 -999 -999 -999 -999
2007-03-29 05:56:14 51°17.6 2°42.261 -999 -999 -999 -999 -999
2007-03-29 05:56:19 51°17.61 2°42.236 -999 -999 -999 -999 -999
2007-03-29 05:56:24 51°17.62 2°42.211 -999 -999 -999 -999 -999
2007-03-29 05:56:29 51°17.63 2°42.187 -999 -999 -999 -999 -999
2007-03-29 05:56:34 51°17.64 2°42.162 -999 -999 -999 -999 -999
2007-03-29 05:56:39 51°17.65 2°42.138 -999 -999 -999 -999 -999
2007-03-29 05:56:44 51°17.66 2°42.113 -999 -999 -999 -999 -999
2007-03-29 05:56:49 51°17.67 2°42.088 -999 -999 -999 -999 -999
2007-03-29 05:56:54 51°17.68 2°42.063 -999 -999 -999 -999 -999
2007-03-29 05:56:59 51°17.69 2°42.038 -999 -999 -999 -999 -999
2007-03-29 05:57:04 51°17.699 2°42.014 -999 -999 -999 -999 -999
2007-03-29 05:57:09 51°17.709 2°41.989 -999 -999 -999 -999 -999
2007-03-29 05:57:14 51°17.719 2°41.964 -999 -999 -999 -999 -999
2007-03-29 05:57:19 51°17.729 2°41.939 -999 -999 -999 -999 -999
2007-03-29 05:57:24 51°17.739 2°41.914 -999 -999 -999 -999 -999
2007-03-29 05:57:29 51°17.749 2°41.889 -999 -999 -999 -999 -999
2007-03-29 05:57:34 51°17.759 2°41.864 -999 -999 -999 -999 -999
2007-03-29 05:57:39 51°17.768 2°41.839 -999 -999 -999 -999 -999
2007-03-29 05:57:44 51°17.777 2°41.814 -999 -999 -999 -999 -999
2007-03-29 05:57:49 51°17.786 2°41.789 -999 -999 -999 -999 -999
2007-03-29 05:57:54 51°17.796 2°41.763 -999 -999 -999 -999 -999
2007-03-29 05:57:59 51°17.805 2°41.738 -999 -999 -999 -999 -999
2007-03-29 05:58:04 51°17.815 2°41.713 -999 -999 -999 -999 -999
2007-03-29 05:58:09 51°17.825 2°41.688 -999 -999 -999 -999 -999
2007-03-29 05:58:14 51°17.835 2°41.663 -999 -999 -999 -999 -999
2007-03-29 05:58:19 51°17.844 2°41.639 -999 -999 -999 -999 -999
2007-03-29 05:58:24 51°17.854 2°41.614 -999 -999 -999 -999 -999
2007-03-29 05:58:29 51°17.864 2°41.589 -999 -999 -999 -999 -999
2007-03-29 05:58:34 51°17.874 2°41.564 -999 -999 -999 -999 -999
2007-03-29 05:58:39 51°17.884 2°41.54 -999 -999 -999 -999 -999
2007-03-29 05:58:44 51°17.893 2°41.515 -999 -999 -999 -999 -999
2007-03-29 05:58:49 51°17.903 2°41.49 -999 -999 -999 -999 -999
2007-03-29 05:58:54 51°17.912 2°41.466 -999 -999 -999 -999 -999
2007-03-29 05:58:59 51°17.922 2°41.442 -999 -999 -999 -999 -999
2007-03-29 05:59:04 51°17.931 2°41.418 -999 -999 -999 -999 -999
2007-03-29 05:59:09 51°17.941 2°41.393 -999 -999 -999 -999 -999
2007-03-29 05:59:14 51°17.95 2°41.369 -999 -999 -999 -999 -999
2007-03-29 05:59:19 51°17.96 2°41.345 -999 -999 -999 -999 -999
2007-03-29 05:59:24 51°17.97 2°41.321 -999 -999 -999 -999 -999
2007-03-29 05:59:29 51°17.98 2°41.296 -999 -999 -999 -999 -999
2007-03-29 05:59:34 51°17.989 2°41.272 -999 -999 -999 -999 -999
2007-03-29 05:59:39 51°17.999 2°41.248 -999 -999 -999 -999 -999
2007-03-29 05:59:44 51°18.009 2°41.224 -999 -999 -999 -999 -999
2007-03-29 05:59:49 51°18.019 2°41.199 -999 -999 -999 -999 -999
2007-03-29 05:59:54 51°18.028 2°41.175 -999 -999 -999 -999 -999
2007-03-29 05:59:59 51°18.038 2°41.151 -999 -999 -999 -999 -999
2007-03-29 06:00:04 51°18.048 2°41.126 -999 -999 -999 -999 -999
2007-03-29 06:00:09 51°18.059 2°41.102 -999 -999 -999 -999 -999
2007-03-29 06:00:14 51°18.069 2°41.078 -999 -999 -999 -999 -999
2007-03-29 06:00:19 51°18.079 2°41.054 -999 -999 -999 -999 -999
2007-03-29 06:00:24 51°18.089 2°41.03 -999 -999 -999 -999 -999
2007-03-29 06:00:29 51°18.098 2°41.005 -999 -999 -999 -999 -999
2007-03-29 06:00:34 51°18.108 2°40.981 -999 -999 -999 -999 -999
2007-03-29 06:00:39 51°18.118 2°40.957 -999 -999 -999 -999 -999
2007-03-29 06:00:44 51°18.128 2°40.932 -999 -999 -999 -999 -999
2007-03-29 06:00:49 51°18.138 2°40.908 -999 -999 -999 -999 -999
2007-03-29 06:00:54 51°18.148 2°40.884 -999 -999 -999 -999 -999
2007-03-29 06:00:59 51°18.158 2°40.86 -999 -999 -999 -999 -999
2007-03-29 06:01:04 51°18.168 2°40.836 -999 -999 -999 -999 -999
2007-03-29 06:01:09 51°18.178 2°40.812 -999 -999 -999 -999 -999
2007-03-29 06:01:14 51°18.188 2°40.787 -999 -999 -999 -999 -999
2007-03-29 06:01:19 51°18.199 2°40.763 -999 -999 -999 -999 -999
2007-03-29 06:01:24 51°18.209 2°40.738 -999 -999 -999 -999 -999
2007-03-29 06:01:29 51°18.219 2°40.714 -999 -999 -999 -999 -999
2007-03-29 06:01:34 51°18.23 2°40.69 -999 -999 -999 -999 -999
2007-03-29 06:01:39 51°18.24 2°40.665 -999 -999 -999 -999 -999
2007-03-29 06:01:44 51°18.25 2°40.641 -999 -999 -999 -999 -999
2007-03-29 06:01:49 51°18.26 2°40.616 -999 -999 -999 -999 -999
2007-03-29 06:01:54 51°18.27 2°40.591 -999 -999 -999 -999 -999
2007-03-29 06:01:59 51°18.28 2°40.567 -999 -999 -999 -999 -999
2007-03-29 06:02:04 51°18.29 2°40.542 -999 -999 -999 -999 -999
2007-03-29 06:02:09 51°18.3 2°40.518 -999 -999 -999 -999 -999
2007-03-29 06:02:14 51°18.31 2°40.493 -999 -999 -999 -999 -999
2007-03-29 06:02:19 51°18.32 2°40.468 -999 -999 -999 -999 -999
2007-03-29 06:02:24 51°18.33 2°40.443 -999 -999 -999 -999 -999
2007-03-29 06:02:29 51°18.34 2°40.419 -999 -999 -999 -999 -999
2007-03-29 06:02:34 51°18.351 2°40.394 -999 -999 -999 -999 -999
2007-03-29 06:02:39 51°18.361 2°40.37 -999 -999 -999 -999 -999
2007-03-29 06:02:44 51°18.371 2°40.346 -999 -999 -999 -999 -999
2007-03-29 06:02:49 51°18.381 2°40.321 -999 -999 -999 -999 -999
2007-03-29 06:02:54 51°18.391 2°40.297 -999 -999 -999 -999 -999
2007-03-29 06:02:59 51°18.401 2°40.274 -999 -999 -999 -999 -999
2007-03-29 06:03:05 51°18.413 2°40.244 -999 -999 -999 -999 -999
2007-03-29 06:03:09 51°18.422 2°40.225 -999 -999 -999 -999 -999
2007-03-29 06:03:14 51°18.432 2°40.2 -999 -999 -999 -999 -999
2007-03-29 06:03:19 51°18.442 2°40.176 -999 -999 -999 -999 -999
2007-03-29 06:03:24 51°18.453 2°40.151 -999 -999 -999 -999 -999
2007-03-29 06:03:29 51°18.463 2°40.127 -999 -999 -999 -999 -999
2007-03-29 06:03:34 51°18.473 2°40.103 -999 -999 -999 -999 -999
2007-03-29 06:03:39 51°18.484 2°40.078 -999 -999 -999 -999 -999
2007-03-29 06:03:44 51°18.494 2°40.054 -999 -999 -999 -999 -999
2007-03-29 06:03:49 51°18.504 2°40.029 -999 -999 -999 -999 -999
2007-03-29 06:03:54 51°18.514 2°40.005 -999 -999 -999 -999 -999
2007-03-29 06:03:59 51°18.525 2°39.98 -999 -999 -999 -999 -999
2007-03-29 06:04:04 51°18.535 2°39.956 -999 -999 -999 -999 -999
2007-03-29 06:04:09 51°18.545 2°39.932 -999 -999 -999 -999 -999
2007-03-29 06:04:14 51°18.555 2°39.908 -999 -999 -999 -999 -999
2007-03-29 06:04:19 51°18.565 2°39.883 -999 -999 -999 -999 -999
2007-03-29 06:04:24 51°18.576 2°39.859 -999 -999 -999 -999 -999
2007-03-29 06:04:29 51°18.586 2°39.835 -999 -999 -999 -999 -999
2007-03-29 06:04:34 51°18.596 2°39.81 -999 -999 -999 -999 -999
2007-03-29 06:04:39 51°18.606 2°39.786 -999 -999 -999 -999 -999
2007-03-29 06:04:44 51°18.616 2°39.762 -999 -999 -999 -999 -999
2007-03-29 06:04:49 51°18.626 2°39.738 -999 -999 -999 -999 -999
2007-03-29 06:04:54 51°18.636 2°39.713 -999 -999 -999 -999 -999
2007-03-29 06:04:59 51°18.646 2°39.689 -999 -999 -999 -999 -999
2007-03-29 06:05:05 51°18.658 2°39.659 -999 -999 -999 -999 -999
2007-03-29 06:05:09 51°18.666 2°39.64 -999 -999 -999 -999 -999
2007-03-29 06:05:14 51°18.676 2°39.616 -999 -999 -999 -999 -999
2007-03-29 06:05:19 51°18.686 2°39.592 -999 -999 -999 -999 -999
2007-03-29 06:05:24 51°18.696 2°39.567 -999 -999 -999 -999 -999
2007-03-29 06:05:29 51°18.706 2°39.543 -999 -999 -999 -999 -999
2007-03-29 06:05:34 51°18.717 2°39.519 -999 -999 -999 -999 -999
2007-03-29 06:05:39 51°18.727 2°39.495 -999 -999 -999 -999 -999
2007-03-29 06:05:44 51°18.738 2°39.47 -999 -999 -999 -999 -999
2007-03-29 06:05:49 51°18.747 2°39.446 -999 -999 -999 -999 -999
2007-03-29 06:05:54 51°18.758 2°39.422 -999 -999 -999 -999 -999
2007-03-29 06:05:59 51°18.768 2°39.397 -999 -999 -999 -999 -999
2007-03-29 06:06:04 51°18.778 2°39.373 -999 -999 -999 -999 -999
2007-03-29 06:06:09 51°18.788 2°39.348 -999 -999 -999 -999 -999
2007-03-29 06:06:14 51°18.798 2°39.324 -999 -999 -999 -999 -999
2007-03-29 06:06:19 51°18.808 2°39.3 -999 -999 -999 -999 -999
2007-03-29 06:06:24 51°18.818 2°39.275 -999 -999 -999 -999 -999
2007-03-29 06:06:29 51°18.827 2°39.25 -999 -999 -999 -999 -999
2007-03-29 06:06:34 51°18.837 2°39.225 -999 -999 -999 -999 -999
2007-03-29 06:06:39 51°18.846 2°39.201 -999 -999 -999 -999 -999
2007-03-29 06:06:44 51°18.856 2°39.176 -999 -999 -999 -999 -999
2007-03-29 06:06:49 51°18.866 2°39.152 -999 -999 -999 -999 -999
2007-03-29 06:06:54 51°18.875 2°39.127 -999 -999 -999 -999 -999
2007-03-29 06:06:59 51°18.885 2°39.103 -999 -999 -999 -999 -999
2007-03-29 06:07:04 51°18.894 2°39.078 -999 -999 -999 -999 -999
2007-03-29 06:07:09 51°18.904 2°39.054 -999 -999 -999 -999 -999
2007-03-29 06:07:14 51°18.914 2°39.029 -999 -999 -999 -999 -999
2007-03-29 06:07:19 51°18.923 2°39.005 -999 -999 -999 -999 -999
2007-03-29 06:07:24 51°18.933 2°38.981 -999 -999 -999 -999 -999
2007-03-29 06:07:29 51°18.943 2°38.956 -999 -999 -999 -999 -999
2007-03-29 06:07:34 51°18.953 2°38.932 -999 -999 -999 -999 -999
2007-03-29 06:07:39 51°18.962 2°38.907 -999 -999 -999 -999 -999
2007-03-29 06:07:44 51°18.972 2°38.883 -999 -999 -999 -999 -999
2007-03-29 06:07:49 51°18.981 2°38.859 -999 -999 -999 -999 -999
2007-03-29 06:07:54 51°18.991 2°38.834 -999 -999 -999 -999 -999
2007-03-29 06:07:59 51°19 2°38.81 -999 -999 -999 -999 -999
2007-03-29 06:08:04 51°19.01 2°38.785 -999 -999 -999 -999 -999
2007-03-29 06:08:09 51°19.02 2°38.761 -999 -999 -999 -999 -999
2007-03-29 06:08:14 51°19.029 2°38.736 -999 -999 -999 -999 -999
2007-03-29 06:08:19 51°19.039 2°38.712 -999 -999 -999 -999 -999
2007-03-29 06:08:24 51°19.048 2°38.687 -999 -999 -999 -999 -999
2007-03-29 06:08:29 51°19.058 2°38.663 -999 -999 -999 -999 -999
2007-03-29 06:08:34 51°19.068 2°38.639 -999 -999 -999 -999 -999
2007-03-29 06:08:39 51°19.077 2°38.614 -999 -999 -999 -999 -999
2007-03-29 06:08:44 51°19.087 2°38.59 -999 -999 -999 -999 -999
2007-03-29 06:08:49 51°19.097 2°38.566 -999 -999 -999 -999 -999
2007-03-29 06:08:54 51°19.107 2°38.541 -999 -999 -999 -999 -999
2007-03-29 06:08:59 51°19.116 2°38.517 -999 -999 -999 -999 -999
2007-03-29 06:09:04 51°19.127 2°38.494 -999 -999 -999 -999 -999
2007-03-29 06:09:09 51°19.137 2°38.47 -999 -999 -999 -999 -999
2007-03-29 06:09:14 51°19.147 2°38.446 -999 -999 -999 -999 -999
2007-03-29 06:09:19 51°19.158 2°38.423 -999 -999 -999 -999 -999
2007-03-29 06:09:24 51°19.168 2°38.399 -999 -999 -999 -999 -999
2007-03-29 06:09:29 51°19.178 2°38.376 -999 -999 -999 -999 -999
2007-03-29 06:09:34 51°19.188 2°38.352 -999 -999 -999 -999 -999
2007-03-29 06:09:39 51°19.199 2°38.329 -999 -999 -999 -999 -999
2007-03-29 06:09:44 51°19.209 2°38.305 -999 -999 -999 -999 -999
2007-03-29 06:09:49 51°19.219 2°38.282 -999 -999 -999 -999 -999
2007-03-29 06:09:54 51°19.23 2°38.258 -999 -999 -999 -999 -999
2007-03-29 06:09:59 51°19.24 2°38.235 -999 -999 -999 -999 -999
2007-03-29 06:10:04 51°19.251 2°38.211 -999 -999 -999 -999 -999
2007-03-29 06:10:09 51°19.261 2°38.188 -999 -999 -999 -999 -999
2007-03-29 06:10:14 51°19.272 2°38.164 -999 -999 -999 -999 -999
2007-03-29 06:10:19 51°19.282 2°38.14 -999 -999 -999 -999 -999
2007-03-29 06:10:24 51°19.292 2°38.117 -999 -999 -999 -999 -999
2007-03-29 06:10:29 51°19.303 2°38.094 -999 -999 -999 -999 -999
2007-03-29 06:10:34 51°19.313 2°38.071 -999 -999 -999 -999 -999
2007-03-29 06:10:39 51°19.324 2°38.048 -999 -999 -999 -999 -999
2007-03-29 06:10:44 51°19.335 2°38.025 -999 -999 -999 -999 -999
2007-03-29 06:10:49 51°19.346 2°38.002 -999 -999 -999 -999 -999
2007-03-29 06:10:54 51°19.356 2°37.979 -999 -999 -999 -999 -999
2007-03-29 06:10:59 51°19.367 2°37.956 -999 -999 -999 -999 -999
2007-03-29 06:11:04 51°19.378 2°37.933 -999 -999 -999 -999 -999
2007-03-29 06:11:09 51°19.389 2°37.911 -999 -999 -999 -999 -999
2007-03-29 06:11:14 51°19.4 2°37.888 -999 -999 -999 -999 -999
2007-03-29 06:11:19 51°19.411 2°37.866 -999 -999 -999 -999 -999
2007-03-29 06:11:24 51°19.422 2°37.843 -999 -999 -999 -999 -999
2007-03-29 06:11:29 51°19.434 2°37.82 -999 -999 -999 -999 -999
2007-03-29 06:11:34 51°19.445 2°37.798 -999 -999 -999 -999 -999
2007-03-29 06:11:39 51°19.455 2°37.774 -999 -999 -999 -999 -999
2007-03-29 06:11:44 51°19.466 2°37.751 -999 -999 -999 -999 -999
2007-03-29 06:11:49 51°19.477 2°37.728 -999 -999 -999 -999 -999
2007-03-29 06:11:54 51°19.487 2°37.704 -999 -999 -999 -999 -999
2007-03-29 06:11:59 51°19.498 2°37.681 -999 -999 -999 -999 -999
2007-03-29 06:12:04 51°19.509 2°37.658 -999 -999 -999 -999 -999
2007-03-29 06:12:09 51°19.52 2°37.635 -999 -999 -999 -999 -999
2007-03-29 06:12:14 51°19.531 2°37.612 -999 -999 -999 -999 -999
2007-03-29 06:12:19 51°19.542 2°37.589 -999 -999 -999 -999 -999
2007-03-29 06:12:24 51°19.553 2°37.566 -999 -999 -999 -999 -999
2007-03-29 06:12:29 51°19.564 2°37.543 -999 -999 -999 -999 -999
2007-03-29 06:12:34 51°19.575 2°37.52 -999 -999 -999 -999 -999
2007-03-29 06:12:39 51°19.585 2°37.497 -999 -999 -999 -999 -999
2007-03-29 06:12:44 51°19.596 2°37.474 -999 -999 -999 -999 -999
2007-03-29 06:12:49 51°19.607 2°37.451 -999 -999 -999 -999 -999
2007-03-29 06:12:54 51°19.618 2°37.428 -999 -999 -999 -999 -999
2007-03-29 06:12:59 51°19.629 2°37.405 -999 -999 -999 -999 -999
2007-03-29 06:13:04 51°19.641 2°37.382 -999 -999 -999 -999 -999
2007-03-29 06:13:09 51°19.651 2°37.359 -999 -999 -999 -999 -999
2007-03-29 06:13:14 51°19.662 2°37.336 -999 -999 -999 -999 -999
2007-03-29 06:13:19 51°19.673 2°37.312 -999 -999 -999 -999 -999
2007-03-29 06:13:24 51°19.684 2°37.289 -999 -999 -999 -999 -999
2007-03-29 06:13:29 51°19.695 2°37.266 -999 -999 -999 -999 -999
2007-03-29 06:13:34 51°19.707 2°37.244 -999 -999 -999 -999 -999
2007-03-29 06:13:39 51°19.719 2°37.222 -999 -999 -999 -999 -999
2007-03-29 06:13:44 51°19.73 2°37.2 -999 -999 -999 -999 -999
2007-03-29 06:13:49 51°19.741 2°37.178 -999 -999 -999 -999 -999
2007-03-29 06:13:54 51°19.752 2°37.156 -999 -999 -999 -999 -999
2007-03-29 06:13:59 51°19.763 2°37.136 -999 -999 -999 -999 -999
2007-03-29 06:14:04 51°19.772 2°37.117 -999 -999 -999 -999 -999
2007-03-29 06:14:09 51°19.781 2°37.099 -999 -999 -999 -999 -999
2007-03-29 06:14:14 51°19.79 2°37.082 -999 -999 -999 -999 -999
2007-03-29 06:14:19 51°19.798 2°37.066 -999 -999 -999 -999 -999
2007-03-29 06:14:25 51°19.807 2°37.048 -999 -999 -999 -999 -999
2007-03-29 06:14:29 51°19.813 2°37.036 -999 -999 -999 -999 -999
2007-03-29 06:14:34 51°19.82 2°37.022 -999 -999 -999 -999 -999
2007-03-29 06:14:39 51°19.826 2°37.009 -999 -999 -999 -999 -999
2007-03-29 06:14:44 51°19.833 2°36.997 -999 -999 -999 -999 -999
2007-03-29 06:14:49 51°19.84 2°36.987 -999 -999 -999 -999 -999
2007-03-29 06:14:54 51°19.846 2°36.978 -999 -999 -999 -999 -999
2007-03-29 06:14:59 51°19.853 2°36.972 -999 -999 -999 -999 -999
2007-03-29 06:15:04 51°19.86 2°36.966 -999 -999 -999 -999 -999
2007-03-29 06:15:09 51°19.866 2°36.961 -999 -999 -999 -999 -999
2007-03-29 06:15:14 51°19.871 2°36.956 -999 -999 -999 -999 -999
2007-03-29 06:15:19 51°19.877 2°36.952 -999 -999 -999 -999 -999
2007-03-29 06:15:24 51°19.882 2°36.948 -999 -999 -999 -999 -999
2007-03-29 06:15:29 51°19.886 2°36.944 -999 -999 -999 -999 -999
2007-03-29 06:15:34 51°19.891 2°36.941 -999 -999 -999 -999 -999
2007-03-29 06:15:39 51°19.895 2°36.937 -999 -999 -999 -999 -999
2007-03-29 06:15:44 51°19.9 2°36.934 -999 -999 -999 -999 -999
2007-03-29 06:15:49 51°19.904 2°36.931 -999 -999 -999 -999 -999
2007-03-29 06:15:54 51°19.907 2°36.928 -999 -999 -999 -999 -999
2007-03-29 06:15:59 51°19.911 2°36.924 -999 -999 -999 -999 -999
2007-03-29 06:16:04 51°19.914 2°36.922 -999 -999 -999 -999 -999
2007-03-29 06:16:09 51°19.917 2°36.919 -999 -999 -999 -999 -999
2007-03-29 06:16:14 51°19.92 2°36.916 -999 -999 -999 -999 -999
2007-03-29 06:16:19 51°19.923 2°36.913 -999 -999 -999 -999 -999
2007-03-29 06:16:24 51°19.926 2°36.91 -999 -999 -999 -999 -999
2007-03-29 06:16:29 51°19.928 2°36.907 -999 -999 -999 -999 -999
2007-03-29 06:16:34 51°19.93 2°36.904 -999 -999 -999 -999 -999
2007-03-29 06:16:39 51°19.932 2°36.901 -999 -999 -999 -999 -999
2007-03-29 06:16:44 51°19.935 2°36.899 -999 -999 -999 -999 -999
2007-03-29 06:16:49 51°19.937 2°36.896 -999 -999 -999 -999 -999
2007-03-29 06:16:54 51°19.939 2°36.894 -999 -999 -999 -999 -999
2007-03-29 06:16:59 51°19.941 2°36.891 -999 -999 -999 -999 -999
2007-03-29 06:17:04 51°19.942 2°36.889 -999 -999 -999 -999 -999
2007-03-29 06:17:09 51°19.944 2°36.886 -999 -999 -999 -999 -999
2007-03-29 06:17:14 51°19.945 2°36.884 -999 -999 -999 -999 -999
2007-03-29 06:17:19 51°19.947 2°36.882 -999 -999 -999 -999 -999
2007-03-29 06:17:24 51°19.948 2°36.879 -999 -999 -999 -999 -999
2007-03-29 06:17:29 51°19.95 2°36.877 -999 -999 -999 -999 -999
2007-03-29 06:17:34 51°19.951 2°36.875 -999 -999 -999 -999 -999
2007-03-29 06:17:39 51°19.952 2°36.873 -999 -999 -999 -999 -999
2007-03-29 06:17:44 51°19.953 2°36.871 -999 -999 -999 -999 -999
2007-03-29 06:17:49 51°19.954 2°36.869 -999 -999 -999 -999 -999
2007-03-29 06:17:54 51°19.956 2°36.867 -999 -999 -999 -999 -999
2007-03-29 06:17:59 51°19.957 2°36.866 -999 -999 -999 -999 -999
2007-03-29 06:18:04 51°19.958 2°36.864 -999 -999 -999 -999 -999
2007-03-29 06:18:09 51°19.958 2°36.862 -999 -999 -999 -999 -999
2007-03-29 06:18:14 51°19.959 2°36.861 -999 -999 -999 -999 -999
2007-03-29 06:18:19 51°19.96 2°36.859 -999 -999 -999 -999 -999
2007-03-29 06:18:24 51°19.961 2°36.857 -999 -999 -999 -999 -999
2007-03-29 06:18:29 51°19.961 2°36.856 -999 -999 -999 -999 -999
2007-03-29 06:18:34 51°19.962 2°36.855 -999 -999 -999 -999 -999
2007-03-29 06:18:39 51°19.963 2°36.853 -999 -999 -999 -999 -999
2007-03-29 06:18:45 51°19.963 2°36.851 -999 -999 -999 -999 -999
2007-03-29 06:18:49 51°19.964 2°36.85 -999 -999 -999 -999 -999
2007-03-29 06:18:54 51°19.964 2°36.849 -999 -999 -999 -999 -999
2007-03-29 06:18:59 51°19.965 2°36.847 -999 -999 -999 -999 -999
2007-03-29 06:19:04 51°19.965 2°36.846 -999 -999 -999 -999 -999
2007-03-29 06:19:09 51°19.966 2°36.845 -999 -999 -999 -999 -999
2007-03-29 06:19:14 51°19.966 2°36.844 -999 -999 -999 -999 -999
2007-03-29 06:19:19 51°19.966 2°36.843 -999 -999 -999 -999 -999
2007-03-29 06:19:24 51°19.967 2°36.842 -999 -999 -999 -999 -999
2007-03-29 06:19:29 51°19.967 2°36.84 -999 -999 -999 -999 -999
2007-03-29 06:19:34 51°19.967 2°36.839 -999 -999 -999 -999 -999
2007-03-29 06:19:39 51°19.968 2°36.838 -999 -999 -999 -999 -999
2007-03-29 06:19:44 51°19.968 2°36.837 -999 -999 -999 -999 -999
2007-03-29 06:19:49 51°19.968 2°36.836 -999 -999 -999 -999 -999
2007-03-29 06:19:54 51°19.968 2°36.835 -999 -999 -999 -999 -999
2007-03-29 06:19:59 51°19.968 2°36.834 -999 -999 -999 -999 -999
2007-03-29 06:20:04 51°19.968 2°36.833 -999 -999 -999 -999 -999
2007-03-29 06:20:09 51°19.968 2°36.832 -999 -999 -999 -999 -999
2007-03-29 06:20:14 51°19.968 2°36.831 -999 -999 -999 -999 -999
2007-03-29 06:20:19 51°19.968 2°36.83 -999 -999 -999 -999 -999
2007-03-29 06:20:24 51°19.968 2°36.829 -999 -999 -999 -999 -999
2007-03-29 06:20:29 51°19.968 2°36.828 -999 -999 -999 -999 -999
2007-03-29 06:20:34 51°19.968 2°36.827 -999 -999 -999 -999 -999
2007-03-29 06:20:39 51°19.968 2°36.827 -999 -999 -999 -999 -999
2007-03-29 06:20:44 51°19.967 2°36.826 -999 -999 -999 -999 -999
2007-03-29 06:20:49 51°19.967 2°36.826 -999 -999 -999 -999 -999
2007-03-29 06:20:54 51°19.967 2°36.825 -999 -999 -999 -999 -999
2007-03-29 06:20:59 51°19.967 2°36.824 -999 -999 -999 -999 -999
2007-03-29 06:21:05 51°19.967 2°36.823 -999 -999 -999 -999 -999
2007-03-29 06:21:09 51°19.966 2°36.823 -999 -999 -999 -999 -999
2007-03-29 06:21:14 51°19.966 2°36.822 -999 -999 -999 -999 -999
2007-03-29 06:21:19 51°19.966 2°36.822 -999 -999 -999 -999 -999
2007-03-29 06:21:24 51°19.965 2°36.821 -999 -999 -999 -999 -999
2007-03-29 06:21:29 51°19.965 2°36.821 -999 -999 -999 -999 -999
2007-03-29 06:21:34 51°19.965 2°36.82 -999 -999 -999 -999 -999
2007-03-29 06:21:39 51°19.964 2°36.82 -999 -999 -999 -999 -999
2007-03-29 06:21:44 51°19.964 2°36.819 -999 -999 -999 -999 -999
2007-03-29 06:21:49 51°19.964 2°36.819 -999 -999 -999 -999 -999
2007-03-29 06:21:54 51°19.963 2°36.819 -999 -999 -999 -999 -999
2007-03-29 06:21:59 51°19.963 2°36.818 -999 -999 -999 -999 -999
2007-03-29 06:22:04 51°19.962 2°36.818 -999 -999 -999 -999 -999
2007-03-29 06:22:09 51°19.962 2°36.818 -999 -999 -999 -999 -999
2007-03-29 06:22:14 51°19.962 2°36.817 -999 -999 -999 -999 -999
2007-03-29 06:22:19 51°19.961 2°36.817 -999 -999 -999 -999 -999
2007-03-29 06:22:24 51°19.961 2°36.817 -999 -999 -999 -999 -999
2007-03-29 06:22:29 51°19.96 2°36.817 -999 -999 -999 -999 -999
2007-03-29 06:22:34 51°19.96 2°36.817 -999 -999 -999 -999 -999
2007-03-29 06:22:39 51°19.959 2°36.816 -999 -999 -999 -999 -999
2007-03-29 06:22:44 51°19.959 2°36.817 -999 -999 -999 -999 -999
2007-03-29 06:22:49 51°19.958 2°36.817 -999 -999 -999 -999 -999
2007-03-29 06:22:54 51°19.958 2°36.816 -999 -999 -999 -999 -999
2007-03-29 06:22:59 51°19.957 2°36.816 -999 -999 -999 -999 -999
2007-03-29 06:23:05 51°19.956 2°36.816 -999 -999 -999 -999 -999
2007-03-29 06:23:09 51°19.956 2°36.816 -999 -999 -999 -999 -999
2007-03-29 06:23:14 51°19.956 2°36.816 -999 -999 -999 -999 -999
2007-03-29 06:23:19 51°19.955 2°36.817 -999 -999 -999 -999 -999
2007-03-29 06:23:24 51°19.955 2°36.817 -999 -999 -999 -999 -999
2007-03-29 06:23:29 51°19.954 2°36.817 -999 -999 -999 -999 -999
2007-03-29 06:23:34 51°19.954 2°36.817 -999 -999 -999 -999 -999
2007-03-29 06:23:39 51°19.953 2°36.817 -999 -999 -999 -999 -999
2007-03-29 06:23:44 51°19.952 2°36.818 -999 -999 -999 -999 -999
2007-03-29 06:23:49 51°19.951 2°36.818 -999 -999 -999 -999 -999
2007-03-29 06:23:54 51°19.951 2°36.818 -999 -999 -999 -999 -999
2007-03-29 06:23:59 51°19.95 2°36.818 -999 -999 -999 -999 -999
2007-03-29 06:24:04 51°19.95 2°36.818 -999 -999 -999 -999 -999
2007-03-29 06:24:09 51°19.949 2°36.818 -999 -999 -999 -999 -999
2007-03-29 06:24:14 51°19.948 2°36.818 -999 -999 -999 -999 -999
2007-03-29 06:24:19 51°19.947 2°36.819 -999 -999 -999 -999 -999
2007-03-29 06:24:24 51°19.947 2°36.819 -999 -999 -999 -999 -999
2007-03-29 06:24:29 51°19.946 2°36.819 -999 -999 -999 -999 -999
2007-03-29 06:24:34 51°19.945 2°36.819 -999 -999 -999 -999 -999
2007-03-29 06:24:39 51°19.944 2°36.819 -999 -999 -999 -999 -999
2007-03-29 06:24:44 51°19.944 2°36.819 -999 -999 -999 -999 -999
2007-03-29 06:24:49 51°19.943 2°36.82 -999 -999 -999 -999 -999
2007-03-29 06:24:54 51°19.942 2°36.82 -999 -999 -999 -999 -999
2007-03-29 06:24:59 51°19.941 2°36.821 -999 -999 -999 -999 -999
2007-03-29 06:25:04 51°19.941 2°36.821 -999 -999 -999 -999 -999